Time;durP1;ratioP1;P1;durP2;ratioP2;P2;SDS_P1;SDS_P2;PMS_P1;PMS_P2;Temp;Humidity;BMP_temperature;BMP_pressure;BME280_temperature;BME280_humidity;BME280_pressure;Samples;Min_cycle;Max_cycle;Signal;HPM_P1;HPM_P2
2021/08/19 00:00:34;;;;;;;4.82;2.70;;;;;;;16.66;nan;100966.16;6268907;22;20466;-47
2021/08/19 00:03:01;;;;;;;4.68;2.72;;;;;;;16.75;nan;100964.50;6269858;22;20336;-48
2021/08/19 00:05:27;;;;;;;3.80;2.60;;;;;;;16.68;nan;100961.31;6269770;22;20497;-46
2021/08/19 00:07:52;;;;;;;6.05;2.90;;;;;;;16.49;nan;100958.47;6270286;22;20007;-47
2021/08/19 00:10:18;;;;;;;10.65;3.05;;;;;;;16.56;nan;100960.84;6268527;22;20366;-47
2021/08/19 00:12:43;;;;;;;3.00;2.70;;;;;;;16.52;nan;100955.22;6270889;22;20045;-47
2021/08/19 00:15:09;;;;;;;4.70;3.08;;;;;;;16.64;nan;100957.53;6268481;22;20065;-47
2021/08/19 00:17:34;;;;;;;5.43;2.75;;;;;;;16.61;nan;100966.22;6243339;22;20003;-47
2021/08/19 00:20:00;;;;;;;4.72;3.13;;;;;;;16.56;nan;100958.97;6268972;22;20003;-47
2021/08/19 00:22:25;;;;;;;4.07;2.90;;;;;;;16.50;nan;100957.38;6269735;22;20006;-47
2021/08/19 00:24:51;;;;;;;3.63;2.92;;;;;;;16.61;nan;100950.78;6268708;22;19999;-47
2021/08/19 00:27:16;;;;;;;4.28;2.60;;;;;;;16.67;nan;100951.59;6269360;22;20000;-47
2021/08/19 00:29:42;;;;;;;3.50;3.20;;;;;;;16.60;nan;100951.88;6269912;22;20003;-47
2021/08/19 00:32:08;;;;;;;5.05;3.22;;;;;;;16.60;nan;100957.31;6269653;22;20113;-47
2021/08/19 00:34:34;;;;;;;6.28;3.50;;;;;;;16.65;nan;100942.91;6269720;22;20026;-47
2021/08/19 00:36:59;;;;;;;6.57;3.38;;;;;;;16.65;nan;100948.31;6269605;22;19996;-47
2021/08/19 00:39:25;;;;;;;5.68;3.55;;;;;;;16.62;nan;100943.50;6268685;22;20368;-48
2021/08/19 00:41:50;;;;;;;4.85;3.80;;;;;;;16.72;nan;100948.03;6268778;22;20000;-47
2021/08/19 00:44:16;;;;;;;7.53;4.05;;;;;;;16.59;nan;100946.75;6268558;22;20000;-47
2021/08/19 00:46:43;;;;;;;5.97;4.00;;;;;;;16.58;nan;100937.84;6269622;22;20320;-47
2021/08/19 00:49:10;;;;;;;5.55;4.20;;;;;;;16.63;nan;100943.19;6269053;22;20004;-48
2021/08/19 00:51:43;;;;;;;5.88;4.28;;;;;;;16.62;nan;100947.00;6269076;22;20106;-47
2021/08/19 00:54:18;;;;;;;9.07;4.80;;;;;;;16.68;nan;100945.09;6268624;22;20003;-47
2021/08/19 00:56:43;;;;;;;4.93;4.40;;;;;;;16.78;nan;100946.91;6242821;22;20114;-49
2021/08/19 00:59:10;;;;;;;6.50;4.70;;;;;;;16.73;nan;100941.53;6268751;22;20031;-47
2021/08/19 01:01:36;;;;;;;6.20;5.28;;;;;;;16.76;nan;100935.56;6269207;22;20057;-47
2021/08/19 01:04:06;;;;;;;7.30;5.20;;;;;;;16.77;nan;100942.59;6269205;22;20239;-47
2021/08/19 01:06:34;;;;;;;6.15;5.22;;;;;;;16.71;nan;100949.94;6267892;22;20012;-48
2021/08/19 01:08:59;;;;;;;6.55;4.85;;;;;;;16.80;nan;100950.94;6269151;22;19999;-47
2021/08/19 01:11:25;;;;;;;6.30;5.00;;;;;;;16.69;nan;100946.69;6268296;22;20382;-47
2021/08/19 01:13:50;;;;;;;7.90;5.10;;;;;;;16.82;nan;100946.03;6269534;22;20026;-48
2021/08/19 01:16:19;;;;;;;7.38;5.47;;;;;;;16.86;nan;100943.56;6268582;22;20380;-48
2021/08/19 01:18:46;;;;;;;7.88;5.78;;;;;;;16.77;nan;100937.97;6269603;22;19999;-47
2021/08/19 01:21:16;;;;;;;6.72;5.60;;;;;;;16.85;nan;100952.78;6268323;22;20011;-47
2021/08/19 01:23:42;;;;;;;10.15;5.70;;;;;;;16.85;nan;100939.25;6269700;22;20053;-47
2021/08/19 01:26:13;;;;;;;7.53;5.88;;;;;;;16.82;nan;100946.03;6268851;22;19996;-50
2021/08/19 01:28:39;;;;;;;7.95;5.38;;;;;;;16.88;nan;100941.41;6269306;22;20010;-47
2021/08/19 01:31:06;;;;;;;7.43;5.07;;;;;;;16.90;nan;100944.63;6268656;22;20312;-47
2021/08/19 01:33:33;;;;;;;8.13;5.53;;;;;;;16.89;nan;100949.25;6269774;22;20014;-47
2021/08/19 01:35:59;;;;;;;8.20;5.80;;;;;;;16.89;nan;100938.41;6268608;22;20030;-48
2021/08/19 01:38:30;;;;;;;6.47;5.72;;;;;;;16.90;nan;100945.44;6241894;22;20491;-47
2021/08/19 01:40:56;;;;;;;7.22;5.03;;;;;;;16.93;nan;100941.34;6269010;22;20010;-48
2021/08/19 01:43:22;;;;;;;6.70;5.38;;;;;;;16.87;nan;100942.47;6268914;22;20083;-47
2021/08/19 01:45:48;;;;;;;10.32;5.90;;;;;;;16.80;nan;100939.31;6269353;22;20186;-47
2021/08/19 01:48:16;;;;;;;7.35;5.88;;;;;;;16.94;nan;100939.44;6270418;22;20339;-50
2021/08/19 01:50:42;;;;;;;7.70;5.50;;;;;;;16.95;nan;100944.56;6270645;22;20339;-47
2021/08/19 01:53:08;;;;;;;7.65;6.35;;;;;;;16.86;nan;100943.56;6270454;22;19999;-47
2021/08/19 01:55:33;;;;;;;7.45;5.93;;;;;;;16.90;nan;100941.94;6271029;22;19996;-50
2021/08/19 01:57:59;;;;;;;9.18;5.68;;;;;;;16.90;nan;100944.63;6270729;22;20006;-48
2021/08/19 02:00:24;;;;;;;7.57;6.13;;;;;;;17.00;nan;100943.72;6271819;22;19999;-48
2021/08/19 02:02:50;;;;;;;6.65;5.82;;;;;;;16.93;nan;100944.06;6270475;22;20008;-47
2021/08/19 02:05:15;;;;;;;8.30;5.88;;;;;;;16.96;nan;100945.38;6267783;22;20030;-48
2021/08/19 02:07:40;;;;;;;7.35;5.80;;;;;;;16.94;nan;100942.97;6271294;22;20003;-49
2021/08/19 02:10:07;;;;;;;6.43;5.75;;;;;;;16.96;nan;100948.91;6270212;22;20003;-47
2021/08/19 02:12:33;;;;;;;9.75;6.57;;;;;;;16.89;nan;100937.59;6270816;22;20105;-50
2021/08/19 02:14:59;;;;;;;6.70;5.95;;;;;;;16.84;nan;100937.63;6270072;22;20011;-51
2021/08/19 02:17:24;;;;;;;7.35;5.90;;;;;;;16.95;nan;100941.06;6270812;22;20439;-49
2021/08/19 02:19:50;;;;;;;7.05;5.60;;;;;;;16.95;nan;100925.63;6270194;22;19995;-49
2021/08/19 02:22:15;;;;;;;8.65;6.07;;;;;;;16.90;nan;100928.41;6269055;22;20053;-48
2021/08/19 02:24:41;;;;;;;8.18;6.45;;;;;;;16.94;nan;100926.72;6243768;22;19995;-48
2021/08/19 02:27:06;;;;;;;9.45;6.25;;;;;;;16.88;nan;100941.41;6270456;22;20027;-48
2021/08/19 02:29:32;;;;;;;6.90;5.70;;;;;;;16.88;nan;100930.59;6269547;22;20027;-49
2021/08/19 02:31:57;;;;;;;7.40;6.18;;;;;;;16.83;nan;100938.72;6269998;22;20368;-48
2021/08/19 02:34:23;;;;;;;9.38;5.95;;;;;;;16.83;nan;100930.63;6270793;22;20338;-48
2021/08/19 02:36:48;;;;;;;7.30;6.15;;;;;;;16.97;nan;100928.84;6270669;22;19999;-49
2021/08/19 02:39:14;;;;;;;8.13;6.35;;;;;;;16.83;nan;100936.03;6270682;22;20489;-47
2021/08/19 02:41:39;;;;;;;9.73;5.75;;;;;;;16.96;nan;100929.94;6270220;22;20503;-48
2021/08/19 02:44:05;;;;;;;7.68;5.72;;;;;;;16.96;nan;100929.94;6242860;22;20412;-46
2021/08/19 02:46:30;;;;;;;7.90;6.20;;;;;;;16.86;nan;100932.75;6270676;22;20121;-48
2021/08/19 02:48:56;;;;;;;7.03;6.25;;;;;;;16.81;nan;100922.78;6270437;22;20026;-47
2021/08/19 02:51:22;;;;;;;8.70;6.38;;;;;;;16.85;nan;100925.72;6269725;22;20489;-48
2021/08/19 02:53:48;;;;;;;7.97;6.03;;;;;;;16.84;nan;100918.69;6270624;22;20069;-47
2021/08/19 02:56:13;;;;;;;8.10;6.72;;;;;;;16.76;nan;100928.25;6269315;22;20008;-46
2021/08/19 02:58:38;;;;;;;8.93;5.82;;;;;;;16.77;nan;100935.28;6269080;22;20014;-47
2021/08/19 03:01:04;;;;;;;7.78;5.75;;;;;;;16.82;nan;100931.69;6269194;22;20030;-48
2021/08/19 03:03:29;;;;;;;7.70;5.85;;;;;;;16.77;nan;100929.06;6270613;22;20008;-48
2021/08/19 03:05:55;;;;;;;5.90;5.28;;;;;;;16.73;nan;100925.31;6270529;22;19995;-47
2021/08/19 03:08:20;;;;;;;8.85;5.95;;;;;;;16.78;nan;100936.06;6270472;22;20007;-48
2021/08/19 03:10:46;;;;;;;7.85;5.78;;;;;;;16.83;nan;100917.09;6269917;22;19999;-48
2021/08/19 03:13:11;;;;;;;7.40;5.90;;;;;;;16.81;nan;100919.28;6269126;22;20000;-47
2021/08/19 03:15:37;;;;;;;8.05;6.05;;;;;;;16.76;nan;100920.13;6270351;22;20100;-52
2021/08/19 03:18:03;;;;;;;7.50;5.78;;;;;;;16.80;nan;100923.06;6269934;22;20083;-49
2021/08/19 03:20:28;;;;;;;8.57;5.88;;;;;;;16.86;nan;100908.38;6270224;22;20538;-50
2021/08/19 03:22:55;;;;;;;10.15;6.07;;;;;;;16.84;nan;100916.00;6271021;22;20058;-47
2021/08/19 03:25:20;;;;;;;9.00;6.53;;;;;;;16.84;nan;100907.88;6269810;22;20003;-49
2021/08/19 03:27:46;;;;;;;7.63;5.72;;;;;;;16.82;nan;100916.28;6269941;22;20490;-47
2021/08/19 03:30:12;;;;;;;8.25;6.57;;;;;;;16.75;nan;100915.00;6268137;22;20010;-47
2021/08/19 03:32:40;;;;;;;10.23;6.53;;;;;;;16.82;nan;100920.88;6270883;22;20010;-48
2021/08/19 03:35:06;;;;;;;9.57;6.20;;;;;;;16.78;nan;100923.34;6268314;22;20049;-47
2021/08/19 03:37:32;;;;;;;8.13;6.47;;;;;;;16.80;nan;100912.25;6270338;22;20018;-47
2021/08/19 03:39:57;;;;;;;9.25;6.95;;;;;;;16.56;nan;100934.63;6270489;22;20078;-47
2021/08/19 03:42:23;;;;;;;8.35;7.43;;;;;;;16.31;nan;100934.78;6269261;22;20000;-47
2021/08/19 03:44:48;;;;;;;7.97;6.68;;;;;;;16.14;nan;100934.38;6270449;22;20000;-48
2021/08/19 03:47:14;;;;;;;8.93;7.25;;;;;;;15.78;nan;100939.16;6269112;22;20011;-47
2021/08/19 03:49:39;;;;;;;11.18;7.25;;;;;;;15.75;nan;100935.13;6270333;22;20038;-48
2021/08/19 03:52:06;;;;;;;10.02;7.00;;;;;;;15.81;nan;100944.03;6269468;22;20285;-48
2021/08/19 03:54:31;;;;;;;9.23;7.32;;;;;;;15.95;nan;100935.03;6269632;22;20003;-50
2021/08/19 03:56:57;;;;;;;10.23;6.88;;;;;;;16.18;nan;100933.56;6269509;22;20494;-48
2021/08/19 03:59:22;;;;;;;9.38;6.75;;;;;;;16.11;nan;100938.44;6269768;22;20019;-48
2021/08/19 04:01:48;;;;;;;8.63;6.32;;;;;;;16.14;nan;100942.47;6270002;22;20003;-47
2021/08/19 04:04:14;;;;;;;9.40;6.40;;;;;;;16.23;nan;100941.63;6269775;22;19996;-48
2021/08/19 04:06:39;;;;;;;7.05;6.20;;;;;;;16.15;nan;100934.09;6270611;22;20009;-48
2021/08/19 04:09:05;;;;;;;9.32;6.75;;;;;;;16.30;nan;100936.69;6269780;22;20000;-47
2021/08/19 04:11:31;;;;;;;7.55;5.57;;;;;;;16.43;nan;100940.66;6268500;22;20004;-48
2021/08/19 04:13:56;;;;;;;9.82;5.80;;;;;;;16.34;nan;100936.97;6269163;22;19996;-51
2021/08/19 04:16:22;;;;;;;7.05;5.53;;;;;;;16.36;nan;100945.59;6269247;22;20008;-47
2021/08/19 04:18:47;;;;;;;7.35;5.32;;;;;;;16.47;nan;100946.31;6269764;22;20018;-49
2021/08/19 04:21:13;;;;;;;8.20;5.82;;;;;;;16.44;nan;100939.56;6268896;22;20007;-47
2021/08/19 04:23:42;;;;;;;6.75;5.07;;;;;;;16.56;nan;100934.63;6270050;22;20000;-47
2021/08/19 04:26:09;;;;;;;7.00;5.35;;;;;;;16.50;nan;100933.03;6269475;22;20000;-47
2021/08/19 04:28:35;;;;;;;7.78;5.68;;;;;;;16.60;nan;100941.06;6268920;22;19999;-47
2021/08/19 04:31:00;;;;;;;6.75;5.68;;;;;;;16.63;nan;100948.63;6268611;22;20007;-47
2021/08/19 04:33:28;;;;;;;8.40;5.38;;;;;;;16.60;nan;100941.06;6268635;22;20006;-46
2021/08/19 04:35:54;;;;;;;6.93;5.22;;;;;;;16.56;nan;100950.84;6270176;22;20343;-47
2021/08/19 04:38:20;;;;;;;7.22;5.13;;;;;;;16.56;nan;100945.44;6268717;22;20008;-47
2021/08/19 04:40:46;;;;;;;8.38;5.07;;;;;;;16.60;nan;100957.31;6269165;22;20331;-47
2021/08/19 04:43:11;;;;;;;9.63;5.22;;;;;;;16.71;nan;100952.66;6269433;22;19995;-47
2021/08/19 04:45:37;;;;;;;6.05;4.93;;;;;;;16.61;nan;100956.22;6269351;22;20006;-47
2021/08/19 04:48:03;;;;;;;7.80;5.05;;;;;;;16.66;nan;100962.66;6242724;22;20011;-47
2021/08/19 04:50:28;;;;;;;7.55;4.97;;;;;;;16.62;nan;100954.31;6269150;22;20004;-47
2021/08/19 04:52:54;;;;;;;6.57;4.50;;;;;;;16.59;nan;100950.28;6266544;22;20010;-47
2021/08/19 04:55:19;;;;;;;6.55;4.95;;;;;;;16.61;nan;100950.78;6269322;22;20454;-47
2021/08/19 04:57:45;;;;;;;7.60;4.78;;;;;;;16.68;nan;100946.97;6269222;22;20455;-47
2021/08/19 05:00:11;;;;;;;10.77;5.35;;;;;;;16.57;nan;100952.47;6267329;22;20079;-47
2021/08/19 05:02:37;;;;;;;7.85;4.45;;;;;;;16.74;nan;100957.50;6268914;22;19996;-46
2021/08/19 05:05:03;;;;;;;7.40;4.97;;;;;;;16.77;nan;100965.03;6268984;22;20007;-48
2021/08/19 05:07:30;;;;;;;7.55;4.13;;;;;;;16.70;nan;100972.69;6269440;22;20007;-46
2021/08/19 05:09:56;;;;;;;5.70;4.20;;;;;;;16.61;nan;100971.63;6267328;22;20071;-47
2021/08/19 05:12:21;;;;;;;6.78;3.88;;;;;;;16.62;nan;100974.06;6241835;22;20035;-47
2021/08/19 05:14:47;;;;;;;6.97;4.20;;;;;;;16.75;nan;100964.50;6266399;22;20069;-47
2021/08/19 05:17:12;;;;;;;5.63;3.88;;;;;;;16.62;nan;100971.34;6265562;22;20012;-48
2021/08/19 05:19:38;;;;;;;4.70;3.42;;;;;;;16.59;nan;100981.94;6267054;22;20323;-48
2021/08/19 05:22:03;;;;;;;7.00;4.10;;;;;;;16.54;nan;100984.69;6268658;22;20008;-48
2021/08/19 05:24:29;;;;;;;5.20;3.80;;;;;;;16.56;nan;100991.41;6271150;22;20011;-47
2021/08/19 05:26:54;;;;;;;4.95;3.80;;;;;;;16.54;nan;100990.91;6270595;22;20007;-47
2021/08/19 05:29:19;;;;;;;5.40;3.53;;;;;;;16.76;nan;100992.38;6269822;22;20011;-47
2021/08/19 05:31:45;;;;;;;6.05;3.67;;;;;;;16.74;nan;100992.66;6271860;22;20031;-48
2021/08/19 05:34:10;;;;;;;7.55;3.60;;;;;;;16.87;nan;100996.59;6272039;22;20211;-48
2021/08/19 05:36:36;;;;;;;6.60;3.90;;;;;;;16.89;nan;100992.53;6271199;22;20274;-47
2021/08/19 05:39:06;;;;;;;6.75;3.90;;;;;;;16.96;nan;100999.50;6271184;22;20443;-48
2021/08/19 05:41:32;;;;;;;4.40;3.40;;;;;;;16.88;nan;100995.53;6271498;22;20379;-48
2021/08/19 05:43:57;;;;;;;6.30;3.58;;;;;;;16.78;nan;100980.19;6270299;22;20083;-48
2021/08/19 05:46:23;;;;;;;5.03;3.60;;;;;;;16.86;nan;100995.78;6272093;22;20011;-50
2021/08/19 05:48:48;;;;;;;6.47;3.80;;;;;;;17.02;nan;100999.19;6271818;22;20003;-47
2021/08/19 05:51:14;;;;;;;5.93;3.30;;;;;;;16.98;nan;100994.63;6271553;22;20450;-47
2021/08/19 05:53:41;;;;;;;5.43;3.58;;;;;;;16.98;nan;101000.03;6273256;22;19999;-49
2021/08/19 05:56:07;;;;;;;8.05;4.13;;;;;;;16.76;nan;100997.78;6272648;22;20011;-48
2021/08/19 05:58:32;;;;;;;3.95;3.08;;;;;;;17.04;nan;101004.31;6271854;22;20010;-47
2021/08/19 06:00:58;;;;;;;6.20;3.72;;;;;;;17.08;nan;101000.75;6271605;22;20410;-48
2021/08/19 06:03:23;;;;;;;6.30;3.60;;;;;;;16.89;nan;101003.38;6272908;22;20003;-47
2021/08/19 06:05:49;;;;;;;6.10;4.00;;;;;;;16.94;nan;101004.41;6272126;22;20429;-47
2021/08/19 06:08:15;;;;;;;7.78;3.85;;;;;;;17.06;nan;101005.66;6272177;22;19999;-48
2021/08/19 06:10:41;;;;;;;8.35;4.50;;;;;;;17.04;nan;101012.41;6271953;22;20006;-48
2021/08/19 06:13:08;;;;;;;6.15;3.70;;;;;;;16.91;nan;101011.19;6271833;22;20094;-49
2021/08/19 06:15:34;;;;;;;8.07;3.92;;;;;;;16.84;nan;101005.28;6272542;22;19999;-47
2021/08/19 06:18:00;;;;;;;6.57;3.35;;;;;;;16.95;nan;101012.25;6272112;22;20007;-47
2021/08/19 06:20:25;;;;;;;6.88;4.00;;;;;;;16.93;nan;101017.13;6271867;22;20004;-47
2021/08/19 06:22:52;;;;;;;8.00;3.80;;;;;;;16.99;nan;101004.34;6272216;22;20319;-47
2021/08/19 06:25:19;;;;;;;4.85;3.20;;;;;;;16.94;nan;101013.34;6272073;22;20422;-47
2021/08/19 06:27:45;;;;;;;5.13;3.75;;;;;;;17.10;nan;101006.69;6272017;22;20012;-47
2021/08/19 06:30:13;;;;;;;6.88;3.78;;;;;;;17.05;nan;101016.75;6244221;22;20030;-51
2021/08/19 06:32:39;;;;;;;4.85;3.47;;;;;;;17.15;nan;101017.47;6271946;22;20425;-47
2021/08/19 06:35:05;;;;;;;5.78;4.00;;;;;;;17.10;nan;101020.22;6270141;22;20525;-47
2021/08/19 06:37:30;;;;;;;9.57;4.25;;;;;;;17.33;nan;101018.66;6270942;22;20008;-48
2021/08/19 06:39:57;;;;;;;7.47;3.55;;;;;;;17.60;nan;101022.72;6270098;22;20319;-48
2021/08/19 06:42:22;;;;;;;5.22;3.58;;;;;;;17.36;nan;101020.78;6271091;22;20071;-49
2021/08/19 06:44:48;;;;;;;8.98;3.45;;;;;;;17.41;nan;101025.31;6242800;22;20030;-47
2021/08/19 06:47:13;;;;;;;6.28;3.80;;;;;;;17.37;nan;101019.69;6267543;22;20379;-49
2021/08/19 06:49:41;;;;;;;5.00;3.72;;;;;;;17.31;nan;101017.31;6265804;22;20007;-47
2021/08/19 06:52:07;;;;;;;9.20;3.78;;;;;;;17.14;nan;101021.28;6238878;22;20007;-49
2021/08/19 06:54:32;;;;;;;5.95;3.83;;;;;;;17.27;nan;101021.72;6267633;22;20335;-47
2021/08/19 06:57:00;;;;;;;7.10;3.75;;;;;;;17.35;nan;101030.00;6241069;22;20030;-50
2021/08/19 06:59:26;;;;;;;10.18;4.00;;;;;;;17.17;nan;101025.31;6266113;22;20011;-48
2021/08/19 07:01:51;;;;;;;5.82;3.88;;;;;;;16.91;nan;101035.56;6268395;22;20033;-50
2021/08/19 07:04:17;;;;;;;4.38;3.30;;;;;;;17.08;nan;101030.53;6267711;22;20089;-48
2021/08/19 07:06:42;;;;;;;6.20;3.63;;;;;;;17.11;nan;101029.16;6241106;22;20012;-48
2021/08/19 07:09:08;;;;;;;6.57;3.70;;;;;;;17.03;nan;101038.69;6240748;22;20339;-48
2021/08/19 07:11:33;;;;;;;4.90;3.67;;;;;;;17.14;nan;101034.00;6266032;22;20003;-48
2021/08/19 07:13:59;;;;;;;8.00;4.13;;;;;;;17.05;nan;101047.31;6263430;22;20003;-48
2021/08/19 07:16:25;;;;;;;5.80;3.38;;;;;;;17.10;nan;101047.31;6268379;22;20164;-47
2021/08/19 07:18:50;;;;;;;5.40;3.45;;;;;;;17.15;nan;101043.72;6267143;22;20462;-47
2021/08/19 07:21:16;;;;;;;4.25;3.13;;;;;;;17.25;nan;101048.25;6267136;22;20011;-48
2021/08/19 07:23:41;;;;;;;8.60;3.97;;;;;;;17.01;nan;101051.69;6267773;22;20007;-48
2021/08/19 07:26:07;;;;;;;5.43;3.40;;;;;;;17.03;nan;101049.50;6267882;22;20484;-48
2021/08/19 07:28:33;;;;;;;6.15;3.78;;;;;;;16.80;nan;101061.06;6265552;22;20008;-48
2021/08/19 07:30:58;;;;;;;5.43;3.75;;;;;;;16.83;nan;101055.09;6268135;22;20007;-48
2021/08/19 07:33:24;;;;;;;6.75;3.97;;;;;;;17.11;nan;101053.53;6266456;22;20339;-48
2021/08/19 07:35:49;;;;;;;7.05;3.75;;;;;;;17.18;nan;101060.22;6265805;22;20638;-48
2021/08/19 07:38:18;;;;;;;5.63;3.50;;;;;;;17.19;nan;101053.72;6265967;22;20078;-47
2021/08/19 07:40:44;;;;;;;8.98;3.63;;;;;;;17.09;nan;101056.53;6265317;22;20010;-48
2021/08/19 07:43:10;;;;;;;5.40;3.85;;;;;;;16.96;nan;101069.88;6265004;22;20000;-48
2021/08/19 07:45:35;;;;;;;6.43;3.60;;;;;;;17.14;nan;101064.59;6266253;22;20006;-47
2021/08/19 07:48:12;;;;;;;4.93;3.63;;;;;;;16.89;nan;101075.63;6267468;22;20014;-49
2021/08/19 07:50:38;;;;;;;8.20;3.90;;;;;;;17.06;nan;101075.22;6267114;22;20573;-48
2021/08/19 07:53:04;;;;;;;9.90;4.13;;;;;;;17.11;nan;101065.16;6267931;22;20462;-47
2021/08/19 07:55:30;;;;;;;5.35;3.75;;;;;;;17.02;nan;101076.88;6267614;22;20057;-48
2021/08/19 07:57:55;;;;;;;6.03;3.30;;;;;;;16.90;nan;101080.75;6266891;22;20004;-48
2021/08/19 08:00:30;;;;;;;6.07;3.63;;;;;;;16.93;nan;101076.69;6264759;22;20003;-83
2021/08/19 08:02:56;;;;;;;7.63;3.85;;;;;;;16.89;nan;101086.47;6213318;23;20020;-83
2021/08/19 08:05:23;;;;;;;4.63;3.92;;;;;;;16.80;nan;101082.72;6186453;23;20541;-83
2021/08/19 08:07:49;;;;;;;6.57;4.38;;;;;;;16.90;nan;101090.78;6182863;23;20089;-82
2021/08/19 08:10:15;;;;;;;5.60;3.90;;;;;;;16.86;nan;101089.69;6183905;23;20036;-82
2021/08/19 08:12:41;;;;;;;5.32;3.78;;;;;;;17.00;nan;101101.50;6181871;23;20668;-82
2021/08/19 08:15:07;;;;;;;4.93;3.58;;;;;;;16.77;nan;101091.41;6184902;23;20138;-82
2021/08/19 08:17:34;;;;;;;9.07;4.20;;;;;;;16.75;nan;101093.59;6210835;23;20514;-83
2021/08/19 08:19:59;;;;;;;5.60;4.20;;;;;;;16.73;nan;101091.16;6184462;23;20062;-83
2021/08/19 08:22:25;;;;;;;6.25;3.30;;;;;;;16.83;nan;101101.91;6184841;23;20009;-83
2021/08/19 08:24:51;;;;;;;6.38;4.30;;;;;;;17.12;nan;101099.25;6183985;23;20108;-83
2021/08/19 08:27:16;;;;;;;6.80;4.00;;;;;;;17.00;nan;101098.81;6183885;23;20057;-82
2021/08/19 08:29:42;;;;;;;7.57;3.55;;;;;;;17.04;nan;101101.75;6183700;23;20032;-83
2021/08/19 08:32:10;;;;;;;6.70;3.95;;;;;;;17.22;nan;101115.41;6184871;23;20005;-82
2021/08/19 08:34:37;;;;;;;8.48;3.63;;;;;;;17.57;nan;101102.66;6184551;23;20005;-83
2021/08/19 08:37:03;;;;;;;7.53;4.20;;;;;;;17.68;nan;101112.34;6184692;23;20019;-82
2021/08/19 08:39:32;;;;;;;6.88;3.60;;;;;;;17.69;nan;101113.13;6184507;23;20009;-83
2021/08/19 08:41:57;;;;;;;6.30;4.15;;;;;;;17.47;nan;101110.88;6185908;23;20004;-83
2021/08/19 08:44:28;;;;;;;5.30;4.03;;;;;;;17.33;nan;101118.84;6212299;23;20051;-82
2021/08/19 08:46:55;;;;;;;8.00;4.28;;;;;;;16.80;nan;101129.53;6184843;23;20004;-83
2021/08/19 08:49:22;;;;;;;6.35;4.78;;;;;;;16.53;nan;101151.56;6212646;23;20001;-83
2021/08/19 08:51:52;;;;;;;8.75;5.65;;;;;;;15.82;nan;101145.59;6184964;23;20013;-83
2021/08/19 08:54:20;;;;;;;8.40;5.30;;;;;;;15.69;nan;101146.94;6184777;23;20032;-83
2021/08/19 08:56:45;;;;;;;9.45;5.50;;;;;;;15.62;nan;101139.13;6185315;23;20106;-83
2021/08/19 08:59:11;;;;;;;9.85;5.97;;;;;;;15.94;nan;101138.78;6186795;23;20008;-83
2021/08/19 09:01:36;;;;;;;9.55;5.72;;;;;;;16.21;nan;101138.44;6229927;23;20115;-84
2021/08/19 09:04:03;;;;;;;6.32;5.32;;;;;;;16.15;nan;101142.22;6217621;23;20008;-84
2021/08/19 09:06:37;;;;;;;8.25;5.80;;;;;;;16.53;nan;101139.94;6212191;23;20003;-84
2021/08/19 09:09:19;;;;;;;6.35;4.50;;;;;;;16.45;nan;101138.63;6240884;23;20365;-84
2021/08/19 09:12:06;;;;;;;4.15;3.58;;;;;;;16.41;nan;101134.03;6211738;23;20065;-83
2021/08/19 09:14:35;;;;;;;6.35;3.92;;;;;;;16.72;nan;101142.84;6213185;23;20077;-84
2021/08/19 09:17:02;;;;;;;4.93;4.00;;;;;;;16.62;nan;101143.66;6211911;23;20087;-84
2021/08/19 09:19:30;;;;;;;4.90;3.53;;;;;;;16.94;nan;101145.97;6213036;23;20034;-84
2021/08/19 09:22:07;;;;;;;5.80;3.50;;;;;;;17.43;nan;101137.75;6240487;23;20058;-83
2021/08/19 09:24:34;;;;;;;5.03;3.67;;;;;;;17.62;nan;101148.69;6239879;23;20424;-83
2021/08/19 09:27:18;;;;;;;5.53;3.78;;;;;;;17.75;nan;101139.88;6213078;23;20019;-84
2021/08/19 09:29:49;;;;;;;7.65;4.50;;;;;;;18.36;nan;101139.22;6239862;23;20035;-84
2021/08/19 09:32:16;;;;;;;5.63;3.80;;;;;;;18.58;nan;101138.66;6240927;23;20011;-84
2021/08/19 09:34:45;;;;;;;5.22;3.45;;;;;;;19.16;nan;101134.84;6213102;23;20034;-84
2021/08/19 09:37:12;;;;;;;10.27;3.95;;;;;;;19.29;nan;101143.06;6213840;23;20078;-84
2021/08/19 09:40:08;;;;;;;;;;;;;;;;;;;;;
2021/08/19 09:42:36;;;;;;;4.38;3.28;;;;;;;19.31;nan;101138.13;6240621;23;20075;-84
2021/08/19 09:45:25;;;;;;;4.78;3.45;;;;;;;19.75;nan;101146.91;6241364;23;20491;-83
2021/08/19 09:47:53;;;;;;;6.63;3.20;;;;;;;19.75;nan;101138.75;6213982;23;20670;-84
2021/08/19 09:50:24;;;;;;;3.47;2.60;;;;;;;19.56;nan;101133.41;6213211;23;20000;-84
2021/08/19 09:52:51;;;;;;;3.88;2.70;;;;;;;19.86;nan;101137.47;6213830;23;20095;-84
2021/08/19 09:55:33;;;;;;;3.47;3.03;;;;;;;19.90;nan;101139.28;6240775;22;19996;-84
2021/08/19 09:58:11;;;;;;;5.43;3.45;;;;;;;19.96;nan;101142.75;6215654;23;20008;-83
2021/08/19 10:00:41;;;;;;;5.22;3.13;;;;;;;19.73;nan;101143.69;6213758;23;20018;-83
2021/08/19 10:03:08;;;;;;;3.45;2.60;;;;;;;20.06;nan;101137.09;6239035;23;20008;-83
2021/08/19 10:05:38;;;;;;;4.93;2.83;;;;;;;19.89;nan;101142.31;6213496;23;20436;-84
2021/08/19 10:08:08;;;;;;;2.63;2.42;;;;;;;20.16;nan;101136.09;6214841;23;20004;-84
2021/08/19 10:10:36;;;;;;;2.85;2.22;;;;;;;19.81;nan;101138.38;6215729;23;20035;-84
2021/08/19 10:13:03;;;;;;;3.75;2.17;;;;;;;19.75;nan;101150.47;6215080;23;20004;-83
2021/08/19 10:15:34;;;;;;;4.13;2.28;;;;;;;20.21;nan;101138.72;6215819;23;20054;-84
2021/08/19 10:18:00;;;;;;;2.80;2.30;;;;;;;20.05;nan;101143.63;6217224;23;20015;-83
2021/08/19 10:20:32;;;;;;;7.30;2.25;;;;;;;20.27;nan;101142.94;6215864;23;20004;-84
2021/08/19 10:23:00;;;;;;;5.22;2.00;;;;;;;20.54;nan;101136.69;6215392;23;20004;-84
2021/08/19 10:25:27;;;;;;;5.18;2.60;;;;;;;20.23;nan;101139.22;6218629;22;20420;-83
2021/08/19 10:28:12;;;;;;;5.28;2.45;;;;;;;20.06;nan;101141.72;6218982;23;20468;-83
2021/08/19 10:30:49;;;;;;;2.42;2.08;;;;;;;19.80;nan;101144.13;6217612;23;20012;-83
2021/08/19 10:33:52;;;;;;;4.43;2.33;;;;;;;19.36;nan;101145.41;6219436;23;20134;-83
2021/08/19 10:36:23;;;;;;;2.28;1.80;;;;;;;19.25;nan;101146.69;6126449;23;20458;-83
2021/08/19 10:38:49;;;;;;;2.85;1.88;;;;;;;19.47;nan;101151.47;6201023;23;20018;-84
2021/08/19 10:41:30;;;;;;;3.08;1.77;;;;;;;19.54;nan;101147.28;6214785;23;20231;-83
2021/08/19 10:44:12;;;;;;;3.47;2.10;;;;;;;19.77;nan;101144.75;6217601;23;20020;-82
2021/08/19 10:46:45;;;;;;;4.85;2.13;;;;;;;20.23;nan;101145.44;6218686;23;20102;-83
2021/08/19 10:49:29;;;;;;;6.38;2.08;;;;;;;20.96;nan;101146.34;6218868;23;20004;-83
2021/08/19 10:51:55;;;;;;;4.13;2.22;;;;;;;21.41;nan;101144.50;6217759;23;20008;-82
2021/08/19 10:54:46;;;;;;;2.90;1.90;;;;;;;21.07;nan;101142.28;6216184;23;20012;-83
2021/08/19 10:57:21;;;;;;;3.40;1.70;;;;;;;20.57;nan;101138.00;6216837;23;20007;-82
2021/08/19 11:00:06;;;;;;;2.22;1.58;;;;;;;20.69;nan;101151.91;6216875;23;20007;-83
2021/08/19 11:02:48;;;;;;;;;;;;;;;19.89;nan;101153.19;6216728;23;20138;-82
2021/08/19 11:05:36;;;;;;;2.20;1.83;;;;;;;19.80;nan;101160.44;6243155;22;19904;-82
2021/08/19 11:08:04;;;;;;;3.00;1.80;;;;;;;19.79;nan;101148.75;6216850;23;20007;-83
2021/08/19 11:10:38;;;;;;;2.97;2.00;;;;;;;19.98;nan;101165.00;6216945;23;20012;-83
2021/08/19 11:13:03;;;;;;;3.85;2.30;;;;;;;19.45;nan;101156.41;6216076;23;20614;-83
2021/08/19 11:15:32;;;;;;;2.20;1.85;;;;;;;19.19;nan;101167.66;6216912;23;20004;-83
2021/08/19 11:18:05;;;;;;;1.92;1.73;;;;;;;19.09;nan;101178.69;6217636;23;20008;-83
2021/08/19 11:25:02;;;;;;;;;;;;;;;;;;;;;
2021/08/19 11:31:42;;;;;;;3.38;2.30;;;;;;;19.59;nan;101182.56;6198924;23;20008;-83
2021/08/19 11:34:44;;;;;;;4.53;2.08;;;;;;;19.85;nan;101187.53;6218814;23;20061;-81
2021/08/19 11:37:10;;;;;;;2.30;2.10;;;;;;;19.40;nan;101189.09;6234194;23;20074;-82
2021/08/19 11:39:36;;;;;;;4.55;1.70;;;;;;;19.77;nan;101190.97;6220880;23;20540;-83
2021/08/19 11:42:32;;;;;;;3.95;1.90;;;;;;;19.47;nan;101179.47;6221440;23;20000;-82
2021/08/19 11:45:29;;;;;;;2.55;1.88;;;;;;;19.18;nan;101176.09;6215629;23;20062;-83
2021/08/19 11:48:55;;;;;;;3.65;2.00;;;;;;;20.11;nan;101177.81;6221403;23;20404;-82
2021/08/19 11:54:50;;;;;;;2.65;1.73;;;;;;;20.10;nan;101184.34;6219923;23;20004;-82
2021/08/19 11:57:23;;;;;;;4.75;2.03;;;;;;;20.10;nan;101188.97;6218743;23;20007;-83
2021/08/19 12:00:07;;;;;;;4.32;2.33;;;;;;;19.94;nan;101195.81;6219414;23;20082;-83
2021/08/19 12:16:29;;;;;;;;;;;;;;;;;;;;;